createdAt,value
2018-01-22T00:01:42.704Z,4.60
2018-01-22T00:04:10.967Z,4.60
2018-01-22T00:06:39.231Z,4.60
2018-01-22T00:09:09.061Z,4.60
2018-01-22T00:16:36.290Z,4.60
2018-01-22T00:19:05.281Z,4.60
2018-01-22T00:21:33.519Z,4.60
2018-01-22T00:24:01.778Z,4.50
2018-01-22T00:26:30.116Z,4.50
2018-01-22T00:28:58.375Z,4.50
2018-01-22T00:31:26.632Z,4.50
2018-01-22T00:33:54.861Z,4.50
2018-01-22T00:41:23.224Z,4.50
2018-01-22T00:43:51.466Z,4.50
2018-01-22T00:46:19.732Z,4.60
2018-01-22T00:48:48.732Z,4.60
2018-01-22T00:51:16.978Z,4.60
2018-01-22T00:53:45.272Z,4.60
2018-01-22T00:58:43.027Z,4.60
2018-01-22T01:01:11.317Z,4.60
2018-01-22T01:03:39.557Z,4.60
2018-01-22T01:06:07.792Z,4.50
2018-01-22T01:11:07.105Z,4.60
2018-01-22T01:16:04.816Z,4.60
2018-01-22T01:18:33.072Z,4.60
2018-01-22T01:21:01.301Z,4.70
2018-01-22T01:23:30.328Z,4.70
2018-01-22T01:25:59.332Z,4.70
2018-01-22T01:28:28.340Z,4.70
2018-01-22T01:30:57.904Z,4.70
2018-01-22T01:33:26.904Z,4.70
2018-01-22T01:40:59.663Z,4.80
2018-01-22T01:43:27.991Z,4.80
2018-01-22T01:45:56.215Z,4.80
2018-01-22T01:50:53.945Z,4.70
2018-01-22T01:53:22.939Z,4.70
2018-01-22T01:55:52.329Z,4.70
2018-01-22T01:58:21.425Z,4.80
2018-01-22T02:00:50.068Z,4.80
2018-01-22T02:03:19.432Z,4.80
2018-01-22T02:05:48.464Z,4.80
2018-01-22T02:08:17.478Z,4.80
2018-01-22T02:10:46.840Z,4.80
2018-01-22T02:13:16.652Z,4.70
2018-01-22T02:18:14.760Z,4.70
2018-01-22T02:20:43.044Z,4.70
2018-01-22T02:23:11.300Z,4.70
2018-01-22T02:25:39.576Z,4.70
2018-01-22T02:28:07.858Z,4.80
2018-01-22T02:30:36.092Z,4.80
2018-01-22T02:33:05.833Z,4.90
2018-01-22T02:38:04.328Z,4.90
2018-01-22T02:40:32.560Z,4.90
2018-01-22T02:43:00.864Z,4.90
2018-01-22T02:45:29.122Z,4.90
2018-01-22T02:47:58.148Z,5.00
2018-01-22T02:50:26.423Z,5.00
2018-01-22T02:52:54.656Z,5.00
2018-01-22T02:55:22.892Z,5.00
2018-01-22T02:57:52.702Z,5.00
2018-01-22T03:00:20.932Z,4.90
2018-01-22T03:05:19.855Z,5.00
2018-01-22T03:07:48.088Z,5.00
2018-01-22T03:10:17.088Z,5.00
2018-01-22T03:12:45.762Z,5.00
2018-01-22T03:15:14.420Z,5.10
2018-01-22T03:20:44.152Z,5.00
2018-01-22T03:23:12.396Z,5.00
2018-01-22T03:25:41.780Z,5.00
2018-01-22T03:28:10.129Z,5.00
2018-01-22T03:30:40.702Z,4.90
2018-01-22T03:33:10.117Z,4.90
2018-01-22T03:35:38.432Z,4.80
2018-01-22T03:38:07.074Z,4.80
2018-01-22T03:43:04.790Z,4.80
2018-01-22T03:45:33.780Z,4.80
2018-01-22T03:48:02.070Z,4.90
2018-01-22T03:52:59.760Z,4.90
2018-01-22T03:55:27.996Z,4.90
2018-01-22T03:57:56.520Z,4.90
2018-01-22T04:00:25.891Z,4.80
2018-01-22T04:02:54.168Z,4.80
2018-01-22T04:05:23.546Z,4.90
2018-01-22T04:07:51.790Z,4.90
2018-01-22T04:10:20.070Z,4.90
2018-01-22T04:12:49.808Z,4.90
2018-01-22T04:15:18.075Z,5.00
2018-01-22T04:17:46.356Z,5.00
2018-01-22T04:20:14.604Z,5.00
2018-01-22T04:22:42.854Z,5.00
2018-01-22T04:25:12.661Z,5.00
2018-01-22T04:27:40.916Z,5.00
2018-01-22T04:30:09.180Z,5.10
2018-01-22T04:32:39.429Z,5.10
2018-01-22T04:35:09.193Z,5.00
2018-01-22T04:37:37.424Z,5.00
2018-01-22T04:40:06.472Z,5.00
2018-01-22T04:45:04.177Z,5.00
2018-01-22T04:47:32.436Z,5.00
2018-01-22T04:50:00.668Z,5.00
2018-01-22T04:52:28.926Z,5.00
2018-01-22T04:54:57.968Z,5.10
2018-01-22T04:57:26.204Z,5.10
2018-01-22T04:59:54.436Z,5.20
2018-01-22T05:02:24.219Z,5.10
2018-01-22T05:04:52.447Z,5.20
2018-01-22T05:07:22.187Z,5.20
2018-01-22T05:09:50.469Z,5.30
2018-01-22T05:12:18.714Z,5.40
2018-01-22T05:14:46.969Z,5.40
2018-01-22T05:17:16.016Z,5.40
2018-01-22T05:19:45.387Z,5.50
2018-01-22T05:22:13.624Z,5.50
2018-01-22T05:27:12.152Z,5.50
2018-01-22T05:29:40.388Z,5.50
2018-01-22T05:32:08.664Z,5.40
2018-01-22T05:34:37.696Z,5.50
2018-01-22T05:39:35.849Z,5.60
2018-01-22T05:42:04.464Z,5.60
2018-01-22T05:44:32.702Z,5.60
2018-01-22T05:47:00.959Z,5.50
2018-01-22T05:49:29.197Z,5.50
2018-01-22T05:51:57.442Z,5.50
2018-01-22T05:54:26.472Z,5.50
2018-01-22T05:56:55.483Z,5.50
2018-01-22T05:59:24.862Z,5.50
2018-01-22T06:01:53.544Z,5.50
2018-01-22T06:04:21.794Z,5.60
2018-01-22T06:06:51.548Z,5.60
2018-01-22T06:09:19.864Z,5.60
2018-01-22T06:14:17.610Z,5.60
2018-01-22T06:16:45.868Z,5.60
2018-01-22T06:21:43.568Z,5.60
2018-01-22T06:24:11.860Z,5.60
2018-01-22T06:26:40.092Z,5.70
2018-01-22T06:29:08.348Z,5.70
2018-01-22T06:31:38.352Z,5.70
2018-01-22T06:34:06.614Z,5.60
2018-01-22T06:36:34.908Z,5.60
2018-01-22T06:39:03.151Z,5.60
2018-01-22T06:41:31.380Z,5.70
2018-01-22T06:44:01.147Z,5.70
2018-01-22T06:46:29.388Z,5.60
2018-01-22T06:48:57.620Z,5.60
2018-01-22T06:53:55.360Z,5.60
2018-01-22T06:56:24.365Z,5.60
2018-01-22T07:01:23.625Z,5.60
2018-01-22T07:06:22.486Z,5.60
2018-01-22T07:08:51.908Z,5.70
2018-01-22T07:11:20.154Z,5.70
2018-01-22T07:13:48.409Z,5.80
2018-01-22T07:16:17.451Z,5.90
2018-01-22T07:18:46.462Z,6.00
2018-01-22T07:23:44.957Z,5.90
2018-01-22T07:26:13.195Z,5.90
2018-01-22T07:31:11.696Z,6.00
2018-01-22T07:33:39.937Z,6.10
2018-01-22T07:36:08.210Z,6.20
2018-01-22T07:38:37.267Z,6.20
2018-01-22T07:41:05.514Z,6.30
2018-01-22T07:43:33.744Z,6.30
2018-01-22T07:46:02.008Z,6.30
2018-01-22T07:48:30.239Z,6.30
2018-01-22T07:50:58.473Z,6.30
2018-01-22T07:53:28.328Z,6.40
2018-01-22T07:55:56.560Z,6.40
2018-01-22T07:58:24.797Z,6.40
2018-01-22T08:00:53.090Z,6.50
2018-01-22T08:03:21.345Z,6.60
2018-01-22T08:05:49.615Z,6.70
2018-01-22T08:08:19.044Z,6.70
2018-01-22T08:13:17.564Z,6.80
2018-01-22T08:15:46.986Z,6.90
2018-01-22T08:18:15.999Z,6.90
2018-01-22T08:20:44.228Z,6.90
2018-01-22T08:25:43.458Z,6.90
2018-01-22T08:28:12.080Z,7.00
2018-01-22T08:30:40.340Z,7.00
2018-01-22T08:35:38.069Z,7.10
2018-01-22T08:38:07.110Z,7.10
2018-01-22T08:40:36.126Z,7.20
2018-01-22T08:43:04.360Z,7.20
2018-01-22T08:45:32.640Z,7.20
2018-01-22T08:48:00.872Z,7.30
2018-01-22T08:50:29.118Z,7.30
2018-01-22T08:52:57.385Z,7.40
2018-01-22T08:55:25.616Z,7.40
2018-01-22T08:57:53.860Z,7.50
2018-01-22T09:00:22.904Z,7.50
2018-01-22T09:02:52.952Z,7.50
2018-01-22T09:05:21.197Z,7.50
2018-01-22T09:07:49.518Z,7.60
2018-01-22T09:10:17.778Z,7.60
2018-01-22T09:12:47.553Z,7.60
2018-01-22T09:15:15.888Z,7.70
2018-01-22T09:17:44.124Z,7.80
2018-01-22T09:20:12.418Z,7.80
2018-01-22T09:22:40.654Z,7.90
2018-01-22T09:25:08.892Z,8.00
2018-01-22T09:27:37.180Z,8.00
2018-01-22T09:30:06.989Z,8.20
2018-01-22T09:32:35.221Z,8.20
2018-01-22T09:35:03.455Z,8.30
2018-01-22T09:37:32.507Z,8.40
2018-01-22T09:40:00.735Z,8.40
2018-01-22T09:42:28.972Z,8.50
2018-01-22T09:44:58.745Z,8.60
2018-01-22T09:47:26.972Z,8.60
2018-01-22T09:49:55.207Z,8.70
2018-01-22T09:54:53.368Z,8.80
2018-01-22T09:57:22.384Z,8.90
2018-01-22T09:59:51.800Z,9.00
2018-01-22T10:02:20.830Z,9.00
2018-01-22T10:04:49.859Z,9.20
2018-01-22T10:07:18.138Z,9.30
2018-01-22T10:12:16.630Z,9.50
2018-01-22T10:14:50.964Z,9.60
2018-01-22T10:17:19.234Z,9.60
2018-01-22T10:19:48.617Z,9.70
2018-01-22T10:22:17.697Z,9.80
2018-01-22T10:24:46.702Z,9.90
2018-01-22T10:29:45.571Z,10.10
2018-01-22T10:34:43.280Z,10.40
2018-01-22T10:37:11.549Z,10.50
2018-01-22T10:39:39.788Z,10.50
2018-01-22T10:42:09.532Z,10.50
2018-01-22T10:44:38.579Z,10.60
2018-01-22T10:47:06.824Z,10.60
2018-01-22T10:52:04.598Z,10.70
2018-01-22T10:54:32.853Z,10.70
2018-01-22T10:57:01.068Z,10.80
2018-01-22T10:59:29.367Z,10.90
2018-01-22T11:04:27.464Z,11.00
2018-01-22T11:06:55.731Z,11.00
2018-01-22T11:09:24.743Z,10.90
2018-01-22T11:11:53.022Z,10.90
2018-01-22T11:14:21.293Z,10.90
2018-01-22T11:16:49.559Z,11.00
2018-01-22T11:19:17.814Z,10.90
2018-01-22T11:21:47.274Z,10.90
2018-01-22T11:24:15.517Z,11.00
2018-01-22T11:26:43.769Z,11.00
2018-01-22T11:29:12.084Z,11.10
2018-01-22T11:31:40.324Z,11.20
2018-01-22T11:36:38.818Z,11.20
2018-01-22T11:39:07.072Z,11.30
2018-01-22T11:41:35.342Z,11.40
2018-01-22T11:44:04.400Z,11.40
2018-01-22T11:49:04.264Z,11.50
2018-01-22T11:51:32.519Z,11.50
2018-01-22T11:54:00.756Z,11.60
2018-01-22T11:56:29.013Z,11.60
2018-01-22T11:58:58.774Z,11.60
2018-01-22T12:01:27.008Z,11.60
2018-01-22T12:03:55.292Z,11.60
2018-01-22T12:06:23.519Z,11.60
2018-01-22T12:08:51.765Z,11.50
2018-01-22T12:11:20.044Z,11.50
2018-01-22T12:16:18.902Z,11.70
2018-01-22T12:18:48.706Z,11.70
2018-01-22T12:23:46.831Z,11.80
2018-01-22T12:28:45.372Z,11.80
2018-01-22T12:31:14.413Z,11.80
2018-01-22T12:33:42.687Z,11.70
2018-01-22T12:36:10.912Z,11.60
2018-01-22T12:38:39.154Z,11.50
2018-01-22T12:41:08.944Z,11.50
2018-01-22T12:43:37.172Z,11.30
2018-01-22T12:46:05.803Z,11.20
2018-01-22T12:48:35.226Z,11.10
2018-01-22T12:51:04.236Z,11.10
2018-01-22T12:53:33.622Z,11.00
2018-01-22T12:56:02.652Z,11.00
2018-01-22T12:58:32.391Z,10.90
2018-01-22T13:01:00.633Z,10.90
2018-01-22T13:03:30.047Z,11.00
2018-01-22T13:05:58.686Z,11.00
2018-01-22T13:08:26.921Z,11.00
2018-01-22T13:10:55.180Z,11.10
2018-01-22T13:13:24.179Z,11.20
2018-01-22T13:18:22.287Z,11.30
2018-01-22T13:20:51.283Z,11.30
2018-01-22T13:23:19.541Z,11.30
2018-01-22T13:25:49.497Z,11.30
2018-01-22T13:28:18.882Z,11.30
2018-01-22T13:30:47.131Z,11.30
2018-01-22T13:33:15.448Z,11.30
2018-01-22T13:35:44.099Z,11.40
2018-01-22T13:38:12.344Z,11.40
2018-01-22T13:40:46.339Z,11.30
2018-01-22T13:43:14.592Z,11.30
2018-01-22T13:48:13.150Z,11.30
2018-01-22T13:50:42.888Z,11.30
2018-01-22T13:53:11.880Z,11.40
2018-01-22T13:58:10.364Z,11.30
2018-01-22T14:00:38.601Z,11.30
2018-01-22T14:03:06.860Z,11.30
2018-01-22T14:05:35.114Z,11.30
2018-01-22T14:08:03.356Z,11.20
2018-01-22T14:10:32.280Z,11.20
2018-01-22T14:13:01.290Z,11.20
2018-01-22T14:15:29.521Z,11.20
2018-01-22T14:17:57.815Z,11.20
2018-01-22T14:20:26.058Z,11.10
2018-01-22T14:22:54.292Z,11.10
2018-01-22T14:25:22.581Z,11.00
2018-01-22T14:27:51.588Z,11.00
2018-01-22T14:30:20.625Z,11.00
2018-01-22T14:35:18.422Z,10.90
2018-01-22T14:37:48.178Z,10.90
2018-01-22T14:42:46.334Z,10.90
2018-01-22T14:45:14.665Z,10.90
2018-01-22T14:47:43.686Z,10.80
2018-01-22T14:50:12.680Z,10.80
2018-01-22T14:52:41.675Z,10.80
2018-01-22T14:55:11.096Z,10.70
2018-01-22T14:57:39.320Z,10.70
2018-01-22T15:00:07.552Z,10.70
2018-01-22T15:02:35.846Z,10.60
2018-01-22T15:05:04.096Z,10.60
2018-01-22T15:07:32.320Z,10.60
2018-01-22T15:12:31.536Z,10.60
2018-01-22T15:14:59.768Z,10.50
2018-01-22T15:19:57.880Z,10.50
2018-01-22T15:22:26.112Z,10.50
2018-01-22T15:24:55.143Z,10.50
2018-01-22T15:27:24.154Z,10.40
2018-01-22T15:29:53.163Z,10.40
2018-01-22T15:32:21.444Z,10.40
2018-01-22T15:34:49.680Z,10.40
2018-01-22T15:37:19.077Z,10.40
2018-01-22T15:39:47.398Z,10.40
2018-01-22T15:44:45.924Z,10.30
2018-01-22T15:47:14.197Z,10.20
2018-01-22T15:49:42.423Z,10.20
2018-01-22T15:54:40.548Z,10.30
2018-01-22T15:59:38.240Z,10.10
2018-01-22T16:04:36.742Z,10.10
2018-01-22T16:07:06.480Z,10.00
2018-01-22T16:09:34.862Z,10.00
2018-01-22T16:12:03.091Z,10.00
2018-01-22T16:14:31.342Z,10.00
2018-01-22T16:16:59.620Z,10.00
2018-01-22T16:19:28.988Z,10.00
2018-01-22T16:21:57.234Z,10.00
2018-01-22T16:24:25.494Z,9.90
2018-01-22T16:26:53.726Z,9.80
2018-01-22T16:31:52.003Z,9.90
2018-01-22T16:34:22.532Z,9.80
2018-01-22T16:36:51.524Z,9.90
2018-01-22T16:39:20.101Z,9.80
2018-01-22T16:41:49.450Z,9.80
2018-01-22T16:44:17.789Z,9.80
2018-01-22T16:46:51.848Z,9.80
2018-01-22T16:49:20.133Z,9.70
2018-01-22T16:51:49.168Z,9.70
2018-01-22T16:54:18.200Z,9.70
2018-01-22T16:56:46.439Z,9.70
2018-01-22T16:59:14.686Z,9.70
2018-01-22T17:01:43.728Z,9.70
2018-01-22T17:04:13.064Z,9.70
2018-01-22T17:09:11.560Z,9.80
2018-01-22T17:11:39.788Z,9.70
2018-01-22T17:14:09.144Z,9.80
2018-01-22T17:24:05.850Z,9.70
2018-01-22T17:26:34.073Z,9.70
2018-01-22T17:29:02.295Z,9.70
2018-01-22T17:31:30.597Z,9.70
2018-01-22T17:33:59.951Z,9.70
2018-01-22T17:36:28.180Z,9.80
2018-01-22T17:38:56.436Z,9.70
2018-01-22T17:41:25.536Z,9.80
2018-01-22T17:46:24.246Z,9.70
2018-01-22T17:51:22.738Z,9.80
2018-01-22T17:53:52.209Z,9.80
2018-01-22T17:56:20.847Z,9.80
2018-01-22T17:58:49.063Z,9.80
2018-01-22T18:01:17.324Z,9.80
2018-01-22T18:03:45.956Z,9.80
2018-01-22T18:06:16.101Z,9.80
2018-01-22T18:08:44.338Z,9.80
2018-01-22T18:11:14.068Z,9.80
2018-01-22T18:13:43.832Z,9.80
2018-01-22T18:16:12.828Z,9.70
2018-01-22T18:18:42.192Z,9.70
2018-01-22T18:21:10.468Z,9.80
2018-01-22T18:23:38.698Z,9.70
2018-01-22T18:26:06.985Z,9.70
2018-01-22T18:28:35.239Z,9.70
2018-01-22T18:31:03.523Z,9.70
2018-01-22T18:33:32.512Z,9.70
2018-01-22T18:36:01.946Z,9.70
2018-01-22T18:38:30.983Z,9.70
2018-01-22T18:46:07.028Z,9.70
2018-01-22T18:48:35.280Z,9.70
2018-01-22T18:51:03.544Z,9.80
2018-01-22T18:53:31.819Z,9.70
2018-01-22T18:56:00.122Z,9.70
2018-01-22T18:58:28.318Z,9.60
2018-01-22T19:00:56.592Z,9.60
2018-01-22T19:03:24.841Z,9.60
2018-01-22T19:05:54.572Z,9.60
2018-01-22T19:13:23.295Z,9.60
2018-01-22T19:15:51.527Z,9.70
2018-01-22T19:18:19.847Z,9.70
2018-01-22T19:20:48.835Z,9.70
2018-01-22T19:23:17.138Z,9.60
2018-01-22T19:25:45.448Z,9.60
2018-01-22T19:30:43.224Z,9.60
2018-01-22T19:33:11.480Z,9.60
2018-01-22T19:35:40.141Z,9.60
2018-01-22T19:38:09.539Z,9.50
2018-01-22T19:40:37.780Z,9.50
2018-01-22T19:43:06.071Z,9.50
2018-01-22T19:48:04.638Z,9.40
2018-01-22T19:50:33.255Z,9.50
2018-01-22T19:55:30.984Z,9.40
2018-01-22T19:57:59.216Z,9.40
2018-01-22T20:00:27.439Z,9.40
2018-01-22T20:02:55.750Z,9.40
2018-01-22T20:05:23.960Z,9.40
2018-01-22T20:07:53.026Z,9.40
2018-01-22T20:10:21.299Z,9.40
2018-01-22T20:12:49.537Z,9.40
2018-01-22T20:17:47.370Z,9.40
2018-01-22T20:20:15.652Z,9.40
2018-01-22T20:22:43.906Z,9.40
2018-01-22T20:25:12.155Z,9.40
2018-01-22T20:27:40.443Z,9.30
2018-01-22T20:32:39.287Z,9.30
2018-01-22T20:37:37.059Z,9.30
2018-01-22T20:40:07.436Z,9.30
2018-01-22T20:47:34.951Z,9.30
2018-01-22T20:57:32.884Z,9.30
2018-01-22T21:00:01.177Z,9.30
2018-01-22T21:02:29.862Z,9.30
2018-01-22T21:07:28.759Z,9.30
2018-01-22T21:09:58.202Z,9.30
2018-01-22T21:12:26.430Z,9.30
2018-01-22T21:14:54.712Z,9.40
2018-01-22T21:17:23.037Z,9.30
2018-01-22T21:22:22.325Z,9.30
2018-01-22T21:24:51.391Z,9.30
2018-01-22T21:27:20.394Z,9.20
2018-01-22T21:32:19.371Z,9.30
2018-01-22T21:34:49.273Z,9.30
2018-01-22T21:37:17.490Z,9.30
2018-01-22T21:39:45.801Z,9.30
2018-01-22T21:42:14.020Z,9.40
2018-01-22T21:44:43.453Z,9.40
2018-01-22T21:47:12.462Z,9.40
2018-01-22T21:49:41.456Z,9.40
2018-01-22T21:52:10.122Z,9.50
2018-01-22T21:54:38.403Z,9.60
2018-01-22T21:57:07.012Z,9.50
2018-01-22T21:59:36.817Z,9.50
2018-01-22T22:02:05.150Z,9.50
2018-01-22T22:07:04.106Z,9.50
2018-01-22T22:09:32.383Z,9.50
2018-01-22T22:14:30.496Z,9.40
2018-01-22T22:16:58.723Z,9.50
2018-01-22T22:19:26.989Z,9.40
2018-01-22T22:21:55.302Z,9.50
2018-01-22T22:24:23.575Z,9.50
2018-01-22T22:26:51.775Z,9.50
2018-01-22T22:29:20.122Z,9.50
2018-01-22T22:31:49.859Z,9.40
2018-01-22T22:36:48.101Z,9.40
2018-01-22T22:41:45.820Z,9.50
2018-01-22T22:46:43.975Z,9.40
2018-01-22T22:49:12.260Z,9.40
2018-01-22T22:51:40.560Z,9.30
2018-01-22T22:56:39.770Z,9.40
2018-01-22T23:01:37.519Z,9.30
2018-01-22T23:04:05.891Z,9.30
2018-01-22T23:06:34.985Z,9.30
2018-01-22T23:09:03.204Z,9.20
2018-01-22T23:11:32.200Z,9.30
2018-01-22T23:14:00.468Z,9.30
2018-01-22T23:16:29.854Z,9.20
2018-01-22T23:18:58.476Z,9.20
2018-01-22T23:21:28.224Z,9.20
2018-01-22T23:23:57.588Z,9.10
2018-01-22T23:26:25.838Z,9.20
2018-01-22T23:28:54.126Z,9.20
2018-01-22T23:31:22.348Z,9.20
2018-01-22T23:33:50.595Z,9.20
2018-01-22T23:36:18.882Z,9.20
2018-01-22T23:38:48.271Z,9.20
2018-01-22T23:41:16.515Z,9.10
2018-01-22T23:43:46.135Z,9.10
2018-01-22T23:46:14.912Z,9.10
2018-01-22T23:58:42.259Z,9.10
